sensor_id;sensor_type;location;lat;lon;timestamp;P1;durP1;ratioP1;P2;durP2;ratioP2
53545;SDS011;39432;51.902;10.844;2024-01-30T00:00:43;7.68;;;4.10;;
53545;SDS011;39432;51.902;10.844;2024-01-30T00:03:13;8.38;;;3.90;;
53545;SDS011;39432;51.902;10.844;2024-01-30T00:05:46;14.10;;;8.73;;
53545;SDS011;39432;51.902;10.844;2024-01-30T00:08:16;7.03;;;4.70;;
53545;SDS011;39432;51.902;10.844;2024-01-30T00:10:46;7.40;;;4.50;;
53545;SDS011;39432;51.902;10.844;2024-01-30T00:13:15;6.53;;;4.22;;
53545;SDS011;39432;51.902;10.844;2024-01-30T00:15:46;7.65;;;4.38;;
53545;SDS011;39432;51.902;10.844;2024-01-30T00:18:16;7.03;;;3.95;;
53545;SDS011;39432;51.902;10.844;2024-01-30T00:20:49;7.43;;;4.07;;
53545;SDS011;39432;51.902;10.844;2024-01-30T00:23:19;5.25;;;4.20;;
53545;SDS011;39432;51.902;10.844;2024-01-30T00:25:49;5.70;;;3.90;;
53545;SDS011;39432;51.902;10.844;2024-01-30T00:28:19;6.93;;;4.22;;
53545;SDS011;39432;51.902;10.844;2024-01-30T00:30:50;5.97;;;4.18;;
53545;SDS011;39432;51.902;10.844;2024-01-30T00:33:19;5.85;;;4.45;;
53545;SDS011;39432;51.902;10.844;2024-01-30T00:35:52;6.57;;;3.95;;
53545;SDS011;39432;51.902;10.844;2024-01-30T00:38:22;6.85;;;4.28;;
53545;SDS011;39432;51.902;10.844;2024-01-30T00:40:52;11.10;;;4.55;;
53545;SDS011;39432;51.902;10.844;2024-01-30T00:43:22;5.68;;;4.50;;
53545;SDS011;39432;51.902;10.844;2024-01-30T00:45:52;9.52;;;4.50;;
53545;SDS011;39432;51.902;10.844;2024-01-30T00:48:22;6.53;;;4.90;;
53545;SDS011;39432;51.902;10.844;2024-01-30T00:50:54;8.15;;;5.47;;
53545;SDS011;39432;51.902;10.844;2024-01-30T00:53:24;7.55;;;5.45;;
53545;SDS011;39432;51.902;10.844;2024-01-30T00:55:54;9.73;;;4.85;;
53545;SDS011;39432;51.902;10.844;2024-01-30T00:58:24;6.97;;;4.97;;
53545;SDS011;39432;51.902;10.844;2024-01-30T01:00:55;10.55;;;5.53;;
53545;SDS011;39432;51.902;10.844;2024-01-30T01:03:25;8.48;;;4.57;;
53545;SDS011;39432;51.902;10.844;2024-01-30T01:05:57;7.95;;;5.22;;
53545;SDS011;39432;51.902;10.844;2024-01-30T01:08:27;8.98;;;4.45;;
53545;SDS011;39432;51.902;10.844;2024-01-30T01:10:57;6.03;;;4.53;;
53545;SDS011;39432;51.902;10.844;2024-01-30T01:13:27;6.32;;;4.72;;
53545;SDS011;39432;51.902;10.844;2024-01-30T01:15:57;7.05;;;4.85;;
53545;SDS011;39432;51.902;10.844;2024-01-30T01:18:27;7.20;;;5.05;;
53545;SDS011;39432;51.902;10.844;2024-01-30T01:21:00;7.78;;;4.63;;
53545;SDS011;39432;51.902;10.844;2024-01-30T01:23:29;10.05;;;5.43;;
53545;SDS011;39432;51.902;10.844;2024-01-30T01:25:59;7.07;;;4.70;;
53545;SDS011;39432;51.902;10.844;2024-01-30T01:28:29;7.22;;;4.60;;
53545;SDS011;39432;51.902;10.844;2024-01-30T01:30:59;6.65;;;4.35;;
53545;SDS011;39432;51.902;10.844;2024-01-30T01:33:33;6.38;;;4.75;;
53545;SDS011;39432;51.902;10.844;2024-01-30T01:36:07;9.55;;;4.95;;
53545;SDS011;39432;51.902;10.844;2024-01-30T01:38:37;7.60;;;5.30;;
53545;SDS011;39432;51.902;10.844;2024-01-30T01:41:07;7.13;;;4.90;;
53545;SDS011;39432;51.902;10.844;2024-01-30T01:43:37;7.60;;;5.35;;
53545;SDS011;39432;51.902;10.844;2024-01-30T01:46:07;8.48;;;5.47;;
53545;SDS011;39432;51.902;10.844;2024-01-30T01:48:38;8.68;;;5.20;;
53545;SDS011;39432;51.902;10.844;2024-01-30T01:51:12;7.50;;;5.15;;
53545;SDS011;39432;51.902;10.844;2024-01-30T01:53:42;12.13;;;5.60;;
53545;SDS011;39432;51.902;10.844;2024-01-30T01:56:12;6.85;;;4.82;;
53545;SDS011;39432;51.902;10.844;2024-01-30T01:58:43;7.93;;;4.50;;
53545;SDS011;39432;51.902;10.844;2024-01-30T02:01:16;7.80;;;4.95;;
53545;SDS011;39432;51.902;10.844;2024-01-30T02:03:48;7.30;;;4.75;;
53545;SDS011;39432;51.902;10.844;2024-01-30T02:06:20;9.45;;;5.63;;
53545;SDS011;39432;51.902;10.844;2024-01-30T02:08:51;8.68;;;5.70;;
53545;SDS011;39432;51.902;10.844;2024-01-30T02:11:21;6.20;;;4.90;;
53545;SDS011;39432;51.902;10.844;2024-01-30T02:13:52;10.38;;;5.47;;
53545;SDS011;39432;51.902;10.844;2024-01-30T02:16:22;10.18;;;4.93;;
53545;SDS011;39432;51.902;10.844;2024-01-30T02:18:51;6.57;;;5.00;;
53545;SDS011;39432;51.902;10.844;2024-01-30T02:21:25;6.72;;;4.38;;
53545;SDS011;39432;51.902;10.844;2024-01-30T02:23:56;6.18;;;4.50;;
53545;SDS011;39432;51.902;10.844;2024-01-30T02:26:27;8.68;;;4.75;;
53545;SDS011;39432;51.902;10.844;2024-01-30T02:28:57;6.03;;;4.20;;
53545;SDS011;39432;51.902;10.844;2024-01-30T02:31:27;8.95;;;3.92;;
53545;SDS011;39432;51.902;10.844;2024-01-30T02:33:57;6.93;;;4.32;;
53545;SDS011;39432;51.902;10.844;2024-01-30T02:36:30;7.78;;;4.50;;
53545;SDS011;39432;51.902;10.844;2024-01-30T02:39:00;6.10;;;3.55;;
53545;SDS011;39432;51.902;10.844;2024-01-30T02:41:30;7.18;;;4.88;;
53545;SDS011;39432;51.902;10.844;2024-01-30T02:44:00;6.80;;;4.20;;
53545;SDS011;39432;51.902;10.844;2024-01-30T02:46:30;7.43;;;4.75;;
53545;SDS011;39432;51.902;10.844;2024-01-30T02:48:59;5.22;;;4.25;;
53545;SDS011;39432;51.902;10.844;2024-01-30T02:51:32;7.75;;;4.28;;
53545;SDS011;39432;51.902;10.844;2024-01-30T02:54:02;6.60;;;4.07;;
53545;SDS011;39432;51.902;10.844;2024-01-30T02:56:32;9.90;;;4.07;;
53545;SDS011;39432;51.902;10.844;2024-01-30T02:59:02;6.60;;;4.15;;
53545;SDS011;39432;51.902;10.844;2024-01-30T03:01:32;5.93;;;4.25;;
53545;SDS011;39432;51.902;10.844;2024-01-30T03:04:02;6.32;;;4.20;;
53545;SDS011;39432;51.902;10.844;2024-01-30T03:06:34;8.25;;;4.60;;
53545;SDS011;39432;51.902;10.844;2024-01-30T03:09:04;7.22;;;4.18;;
53545;SDS011;39432;51.902;10.844;2024-01-30T03:11:36;6.70;;;5.00;;
53545;SDS011;39432;51.902;10.844;2024-01-30T03:14:03;7.40;;;5.03;;
53545;SDS011;39432;51.902;10.844;2024-01-30T03:16:33;6.47;;;4.43;;
53545;SDS011;39432;51.902;10.844;2024-01-30T03:19:03;7.35;;;4.65;;
53545;SDS011;39432;51.902;10.844;2024-01-30T03:21:37;7.10;;;4.32;;
53545;SDS011;39432;51.902;10.844;2024-01-30T03:24:07;11.25;;;4.80;;
53545;SDS011;39432;51.902;10.844;2024-01-30T03:26:37;5.88;;;4.68;;
53545;SDS011;39432;51.902;10.844;2024-01-30T03:29:07;11.60;;;5.38;;
53545;SDS011;39432;51.902;10.844;2024-01-30T03:31:37;8.80;;;5.10;;
53545;SDS011;39432;51.902;10.844;2024-01-30T03:34:07;8.93;;;5.38;;
53545;SDS011;39432;51.902;10.844;2024-01-30T03:36:39;8.57;;;5.00;;
53545;SDS011;39432;51.902;10.844;2024-01-30T03:39:09;6.07;;;4.47;;
53545;SDS011;39432;51.902;10.844;2024-01-30T03:41:41;6.32;;;4.43;;
53545;SDS011;39432;51.902;10.844;2024-01-30T03:44:11;7.00;;;4.72;;
53545;SDS011;39432;51.902;10.844;2024-01-30T03:46:41;7.32;;;4.85;;
53545;SDS011;39432;51.902;10.844;2024-01-30T03:49:11;9.27;;;5.32;;
53545;SDS011;39432;51.902;10.844;2024-01-30T03:51:43;6.28;;;4.90;;
53545;SDS011;39432;51.902;10.844;2024-01-30T03:54:14;6.65;;;5.22;;
53545;SDS011;39432;51.902;10.844;2024-01-30T03:56:45;7.80;;;5.10;;
53545;SDS011;39432;51.902;10.844;2024-01-30T03:59:15;7.47;;;5.07;;
53545;SDS011;39432;51.902;10.844;2024-01-30T04:01:49;10.23;;;5.35;;
53545;SDS011;39432;51.902;10.844;2024-01-30T04:04:19;9.00;;;5.35;;
53545;SDS011;39432;51.902;10.844;2024-01-30T04:06:52;10.15;;;6.00;;
53545;SDS011;39432;51.902;10.844;2024-01-30T04:09:22;7.45;;;5.03;;
53545;SDS011;39432;51.902;10.844;2024-01-30T04:11:53;8.38;;;4.95;;
53545;SDS011;39432;51.902;10.844;2024-01-30T04:14:23;7.65;;;5.30;;
53545;SDS011;39432;51.902;10.844;2024-01-30T04:16:53;6.78;;;5.13;;
53545;SDS011;39432;51.902;10.844;2024-01-30T04:19:22;8.10;;;5.47;;
53545;SDS011;39432;51.902;10.844;2024-01-30T04:21:55;6.72;;;4.90;;
53545;SDS011;39432;51.902;10.844;2024-01-30T04:24:25;11.23;;;4.95;;
53545;SDS011;39432;51.902;10.844;2024-01-30T04:26:55;7.95;;;4.60;;
53545;SDS011;39432;51.902;10.844;2024-01-30T04:29:24;8.32;;;5.72;;
53545;SDS011;39432;51.902;10.844;2024-01-30T04:31:54;10.02;;;5.40;;
53545;SDS011;39432;51.902;10.844;2024-01-30T04:34:24;6.97;;;5.80;;
53545;SDS011;39432;51.902;10.844;2024-01-30T04:36:57;13.85;;;9.20;;
53545;SDS011;39432;51.902;10.844;2024-01-30T04:39:27;15.35;;;8.68;;
53545;SDS011;39432;51.902;10.844;2024-01-30T04:41:56;11.32;;;6.68;;
53545;SDS011;39432;51.902;10.844;2024-01-30T04:44:26;9.10;;;6.57;;
53545;SDS011;39432;51.902;10.844;2024-01-30T04:46:56;8.88;;;6.15;;
53545;SDS011;39432;51.902;10.844;2024-01-30T04:49:28;8.43;;;5.57;;
53545;SDS011;39432;51.902;10.844;2024-01-30T04:52:01;7.82;;;5.30;;
53545;SDS011;39432;51.902;10.844;2024-01-30T04:54:31;8.80;;;5.68;;
53545;SDS011;39432;51.902;10.844;2024-01-30T04:57:01;8.60;;;6.20;;
53545;SDS011;39432;51.902;10.844;2024-01-30T04:59:32;10.30;;;7.03;;
53545;SDS011;39432;51.902;10.844;2024-01-30T05:02:02;10.13;;;5.40;;
53545;SDS011;39432;51.902;10.844;2024-01-30T05:04:32;11.77;;;7.35;;
53545;SDS011;39432;51.902;10.844;2024-01-30T05:07:05;9.00;;;6.60;;
53545;SDS011;39432;51.902;10.844;2024-01-30T05:09:35;8.35;;;5.72;;
53545;SDS011;39432;51.902;10.844;2024-01-30T05:12:04;10.90;;;6.95;;
53545;SDS011;39432;51.902;10.844;2024-01-30T05:14:34;8.55;;;5.85;;
53545;SDS011;39432;51.902;10.844;2024-01-30T05:17:04;12.32;;;6.78;;
53545;SDS011;39432;51.902;10.844;2024-01-30T05:19:34;12.55;;;6.00;;
53545;SDS011;39432;51.902;10.844;2024-01-30T05:22:07;10.68;;;6.03;;
53545;SDS011;39432;51.902;10.844;2024-01-30T05:24:37;9.48;;;7.05;;
53545;SDS011;39432;51.902;10.844;2024-01-30T05:27:07;9.45;;;7.15;;
53545;SDS011;39432;51.902;10.844;2024-01-30T05:29:37;10.15;;;6.45;;
53545;SDS011;39432;51.902;10.844;2024-01-30T05:32:07;8.77;;;6.90;;
53545;SDS011;39432;51.902;10.844;2024-01-30T05:34:37;12.32;;;6.18;;
53545;SDS011;39432;51.902;10.844;2024-01-30T05:37:10;9.07;;;6.68;;
53545;SDS011;39432;51.902;10.844;2024-01-30T05:39:43;9.20;;;6.00;;
53545;SDS011;39432;51.902;10.844;2024-01-30T05:42:13;8.00;;;6.35;;
53545;SDS011;39432;51.902;10.844;2024-01-30T05:44:44;9.50;;;6.00;;
53545;SDS011;39432;51.902;10.844;2024-01-30T05:47:14;8.98;;;5.78;;
53545;SDS011;39432;51.902;10.844;2024-01-30T05:49:43;9.07;;;6.43;;
53545;SDS011;39432;51.902;10.844;2024-01-30T05:52:16;9.73;;;5.88;;
53545;SDS011;39432;51.902;10.844;2024-01-30T05:54:46;10.52;;;6.40;;
53545;SDS011;39432;51.902;10.844;2024-01-30T05:57:16;11.15;;;6.85;;
53545;SDS011;39432;51.902;10.844;2024-01-30T05:59:45;14.00;;;8.93;;
53545;SDS011;39432;51.902;10.844;2024-01-30T06:02:15;9.73;;;8.50;;
53545;SDS011;39432;51.902;10.844;2024-01-30T06:04:46;21.13;;;12.73;;
53545;SDS011;39432;51.902;10.844;2024-01-30T06:07:18;15.23;;;8.32;;
53545;SDS011;39432;51.902;10.844;2024-01-30T06:09:49;13.57;;;9.63;;
53545;SDS011;39432;51.902;10.844;2024-01-30T06:12:18;15.57;;;10.27;;
53545;SDS011;39432;51.902;10.844;2024-01-30T06:14:48;15.13;;;9.20;;
53545;SDS011;39432;51.902;10.844;2024-01-30T06:17:21;12.25;;;9.02;;
53545;SDS011;39432;51.902;10.844;2024-01-30T06:19:51;12.60;;;8.35;;
53545;SDS011;39432;51.902;10.844;2024-01-30T06:22:23;15.75;;;11.35;;
53545;SDS011;39432;51.902;10.844;2024-01-30T06:24:53;10.65;;;7.40;;
53545;SDS011;39432;51.902;10.844;2024-01-30T06:27:23;11.32;;;8.35;;
53545;SDS011;39432;51.902;10.844;2024-01-30T06:29:53;22.90;;;14.75;;
53545;SDS011;39432;51.902;10.844;2024-01-30T06:32:23;19.45;;;13.30;;
53545;SDS011;39432;51.902;10.844;2024-01-30T06:34:54;12.68;;;7.97;;
53545;SDS011;39432;51.902;10.844;2024-01-30T06:37:26;12.35;;;8.65;;
53545;SDS011;39432;51.902;10.844;2024-01-30T06:39:56;14.63;;;7.40;;
53545;SDS011;39432;51.902;10.844;2024-01-30T06:42:26;10.35;;;7.25;;
53545;SDS011;39432;51.902;10.844;2024-01-30T06:44:56;9.57;;;7.38;;
53545;SDS011;39432;51.902;10.844;2024-01-30T06:47:26;10.25;;;6.63;;
53545;SDS011;39432;51.902;10.844;2024-01-30T06:49:57;10.90;;;7.78;;
53545;SDS011;39432;51.902;10.844;2024-01-30T06:52:32;9.13;;;7.03;;
53545;SDS011;39432;51.902;10.844;2024-01-30T06:55:02;11.57;;;7.18;;
53545;SDS011;39432;51.902;10.844;2024-01-30T06:57:32;9.15;;;6.65;;
53545;SDS011;39432;51.902;10.844;2024-01-30T07:00:02;16.63;;;7.45;;
53545;SDS011;39432;51.902;10.844;2024-01-30T07:02:32;10.52;;;7.00;;
53545;SDS011;39432;51.902;10.844;2024-01-30T07:05:02;10.02;;;7.40;;
53545;SDS011;39432;51.902;10.844;2024-01-30T07:07:35;8.13;;;6.65;;
53545;SDS011;39432;51.902;10.844;2024-01-30T07:10:06;12.30;;;7.72;;
53545;SDS011;39432;51.902;10.844;2024-01-30T07:12:36;10.10;;;7.55;;
53545;SDS011;39432;51.902;10.844;2024-01-30T07:15:07;12.20;;;8.93;;
53545;SDS011;39432;51.902;10.844;2024-01-30T07:17:37;13.10;;;8.63;;
53545;SDS011;39432;51.902;10.844;2024-01-30T07:20:07;13.40;;;8.45;;
53545;SDS011;39432;51.902;10.844;2024-01-30T07:22:46;32.72;;;17.08;;
53545;SDS011;39432;51.902;10.844;2024-01-30T07:25:16;12.95;;;8.52;;
53545;SDS011;39432;51.902;10.844;2024-01-30T07:27:46;9.88;;;7.55;;
53545;SDS011;39432;51.902;10.844;2024-01-30T07:30:16;10.98;;;7.07;;
53545;SDS011;39432;51.902;10.844;2024-01-30T07:32:46;9.70;;;6.63;;
53545;SDS011;39432;51.902;10.844;2024-01-30T07:35:16;10.98;;;7.05;;
53545;SDS011;39432;51.902;10.844;2024-01-30T07:37:48;11.15;;;7.13;;
53545;SDS011;39432;51.902;10.844;2024-01-30T07:40:18;9.57;;;6.38;;
53545;SDS011;39432;51.902;10.844;2024-01-30T07:42:48;11.57;;;6.47;;
53545;SDS011;39432;51.902;10.844;2024-01-30T07:45:19;9.88;;;6.43;;
53545;SDS011;39432;51.902;10.844;2024-01-30T07:47:51;10.07;;;6.93;;
53545;SDS011;39432;51.902;10.844;2024-01-30T07:50:21;28.95;;;23.77;;
53545;SDS011;39432;51.902;10.844;2024-01-30T07:52:55;26.10;;;20.23;;
53545;SDS011;39432;51.902;10.844;2024-01-30T07:55:26;24.85;;;16.42;;
53545;SDS011;39432;51.902;10.844;2024-01-30T07:57:58;15.63;;;10.65;;
53545;SDS011;39432;51.902;10.844;2024-01-30T08:00:28;18.00;;;11.48;;
53545;SDS011;39432;51.902;10.844;2024-01-30T08:02:58;21.15;;;12.57;;
53545;SDS011;39432;51.902;10.844;2024-01-30T08:05:28;14.90;;;9.65;;
53545;SDS011;39432;51.902;10.844;2024-01-30T08:08:01;16.63;;;10.32;;
53545;SDS011;39432;51.902;10.844;2024-01-30T08:10:30;18.42;;;10.88;;
53545;SDS011;39432;51.902;10.844;2024-01-30T08:13:00;20.90;;;10.32;;
53545;SDS011;39432;51.902;10.844;2024-01-30T08:15:30;18.42;;;12.27;;
53545;SDS011;39432;51.902;10.844;2024-01-30T08:18:00;21.90;;;14.45;;
53545;SDS011;39432;51.902;10.844;2024-01-30T08:20:31;19.08;;;12.48;;
53545;SDS011;39432;51.902;10.844;2024-01-30T08:23:04;17.08;;;11.85;;
53545;SDS011;39432;51.902;10.844;2024-01-30T08:25:34;14.77;;;10.77;;
53545;SDS011;39432;51.902;10.844;2024-01-30T08:28:04;19.45;;;11.70;;
53545;SDS011;39432;51.902;10.844;2024-01-30T08:30:34;19.40;;;11.23;;
53545;SDS011;39432;51.902;10.844;2024-01-30T08:33:05;30.27;;;11.52;;
53545;SDS011;39432;51.902;10.844;2024-01-30T08:35:35;31.15;;;17.20;;
53545;SDS011;39432;51.902;10.844;2024-01-30T08:38:08;23.30;;;14.90;;
53545;SDS011;39432;51.902;10.844;2024-01-30T08:40:39;25.42;;;16.55;;
53545;SDS011;39432;51.902;10.844;2024-01-30T08:43:09;25.58;;;16.48;;
53545;SDS011;39432;51.902;10.844;2024-01-30T08:45:39;23.88;;;12.80;;
53545;SDS011;39432;51.902;10.844;2024-01-30T08:48:09;27.45;;;17.08;;
53545;SDS011;39432;51.902;10.844;2024-01-30T08:50:39;15.98;;;11.45;;
53545;SDS011;39432;51.902;10.844;2024-01-30T08:53:12;15.90;;;9.95;;
53545;SDS011;39432;51.902;10.844;2024-01-30T08:55:42;13.50;;;9.73;;
53545;SDS011;39432;51.902;10.844;2024-01-30T08:58:12;15.15;;;10.65;;
53545;SDS011;39432;51.902;10.844;2024-01-30T09:00:42;16.00;;;10.43;;
53545;SDS011;39432;51.902;10.844;2024-01-30T09:03:12;23.35;;;10.45;;
53545;SDS011;39432;51.902;10.844;2024-01-30T09:05:42;27.23;;;12.77;;
53545;SDS011;39432;51.902;10.844;2024-01-30T09:08:14;23.38;;;12.77;;
53545;SDS011;39432;51.902;10.844;2024-01-30T09:10:44;23.10;;;11.15;;
53545;SDS011;39432;51.902;10.844;2024-01-30T09:13:15;18.10;;;10.38;;
53545;SDS011;39432;51.902;10.844;2024-01-30T09:15:45;19.92;;;10.55;;
53545;SDS011;39432;51.902;10.844;2024-01-30T09:18:14;18.45;;;9.07;;
53545;SDS011;39432;51.902;10.844;2024-01-30T09:20:45;15.10;;;9.55;;
53545;SDS011;39432;51.902;10.844;2024-01-30T09:23:17;15.25;;;9.77;;
53545;SDS011;39432;51.902;10.844;2024-01-30T09:25:47;19.85;;;10.60;;
53545;SDS011;39432;51.902;10.844;2024-01-30T09:28:17;14.70;;;9.52;;
53545;SDS011;39432;51.902;10.844;2024-01-30T09:30:50;12.50;;;8.52;;
53545;SDS011;39432;51.902;10.844;2024-01-30T09:33:20;13.55;;;8.50;;
53545;SDS011;39432;51.902;10.844;2024-01-30T09:35:50;13.10;;;9.43;;
53545;SDS011;39432;51.902;10.844;2024-01-30T09:38:23;17.08;;;8.73;;
53545;SDS011;39432;51.902;10.844;2024-01-30T09:40:53;11.68;;;8.15;;
53545;SDS011;39432;51.902;10.844;2024-01-30T09:43:24;10.70;;;7.63;;
53545;SDS011;39432;51.902;10.844;2024-01-30T09:45:58;9.95;;;7.20;;
53545;SDS011;39432;51.902;10.844;2024-01-30T09:48:32;25.88;;;14.90;;
53545;SDS011;39432;51.902;10.844;2024-01-30T09:51:03;11.60;;;6.50;;
53545;SDS011;39432;51.902;10.844;2024-01-30T09:53:40;11.50;;;6.65;;
53545;SDS011;39432;51.902;10.844;2024-01-30T09:56:12;10.85;;;6.25;;
53545;SDS011;39432;51.902;10.844;2024-01-30T09:58:42;16.25;;;8.43;;
53545;SDS011;39432;51.902;10.844;2024-01-30T10:01:12;13.55;;;8.02;;
53545;SDS011;39432;51.902;10.844;2024-01-30T10:03:46;10.20;;;7.35;;
53545;SDS011;39432;51.902;10.844;2024-01-30T10:06:16;15.27;;;10.45;;
53545;SDS011;39432;51.902;10.844;2024-01-30T10:08:50;10.95;;;7.60;;
53545;SDS011;39432;51.902;10.844;2024-01-30T10:11:20;20.52;;;12.70;;
53545;SDS011;39432;51.902;10.844;2024-01-30T10:13:53;22.60;;;11.40;;
53545;SDS011;39432;51.902;10.844;2024-01-30T10:16:23;51.80;;;22.77;;
53545;SDS011;39432;51.902;10.844;2024-01-30T10:18:53;43.47;;;17.95;;
53545;SDS011;39432;51.902;10.844;2024-01-30T10:21:23;46.45;;;21.05;;
53545;SDS011;39432;51.902;10.844;2024-01-30T10:23:56;13.23;;;7.18;;
53545;SDS011;39432;51.902;10.844;2024-01-30T10:26:26;15.55;;;9.50;;
53545;SDS011;39432;51.902;10.844;2024-01-30T10:28:59;15.70;;;9.77;;
53545;SDS011;39432;51.902;10.844;2024-01-30T10:31:29;6.45;;;4.97;;
53545;SDS011;39432;51.902;10.844;2024-01-30T10:33:59;7.70;;;4.70;;
53545;SDS011;39432;51.902;10.844;2024-01-30T10:36:42;8.70;;;4.30;;
53545;SDS011;39432;51.902;10.844;2024-01-30T10:39:19;6.28;;;4.68;;
53545;SDS011;39432;51.902;10.844;2024-01-30T10:41:52;17.60;;;4.18;;
53545;SDS011;39432;51.902;10.844;2024-01-30T10:44:25;13.02;;;4.85;;
53545;SDS011;39432;51.902;10.844;2024-01-30T10:47:00;10.85;;;5.10;;
53545;SDS011;39432;51.902;10.844;2024-01-30T10:49:36;7.13;;;4.60;;
53545;SDS011;39432;51.902;10.844;2024-01-30T10:52:06;9.55;;;4.95;;
53545;SDS011;39432;51.902;10.844;2024-01-30T10:54:42;7.10;;;4.45;;
53545;SDS011;39432;51.902;10.844;2024-01-30T10:57:14;8.27;;;4.88;;
53545;SDS011;39432;51.902;10.844;2024-01-30T10:59:45;10.05;;;4.82;;
53545;SDS011;39432;51.902;10.844;2024-01-30T11:02:16;6.80;;;4.80;;
53545;SDS011;39432;51.902;10.844;2024-01-30T11:04:46;12.75;;;4.68;;
53545;SDS011;39432;51.902;10.844;2024-01-30T11:07:18;15.70;;;5.45;;
53545;SDS011;39432;51.902;10.844;2024-01-30T11:09:51;6.85;;;4.50;;
53545;SDS011;39432;51.902;10.844;2024-01-30T11:12:22;9.90;;;4.65;;
53545;SDS011;39432;51.902;10.844;2024-01-30T11:15:01;10.30;;;5.85;;
53545;SDS011;39432;51.902;10.844;2024-01-30T11:17:43;7.00;;;3.90;;
53545;SDS011;39432;51.902;10.844;2024-01-30T11:20:15;8.13;;;4.47;;
53545;SDS011;39432;51.902;10.844;2024-01-30T11:22:47;6.10;;;3.75;;
53545;SDS011;39432;51.902;10.844;2024-01-30T11:25:23;9.43;;;4.32;;
53545;SDS011;39432;51.902;10.844;2024-01-30T11:27:54;5.80;;;3.95;;
53545;SDS011;39432;51.902;10.844;2024-01-30T11:30:25;6.75;;;3.80;;
53545;SDS011;39432;51.902;10.844;2024-01-30T11:32:59;5.85;;;3.92;;
53545;SDS011;39432;51.902;10.844;2024-01-30T11:35:33;9.02;;;4.38;;
53545;SDS011;39432;51.902;10.844;2024-01-30T11:38:04;8.13;;;4.03;;
53545;SDS011;39432;51.902;10.844;2024-01-30T11:40:38;7.03;;;4.00;;
53545;SDS011;39432;51.902;10.844;2024-01-30T11:43:08;7.40;;;4.85;;
53545;SDS011;39432;51.902;10.844;2024-01-30T11:45:39;7.68;;;4.35;;
53545;SDS011;39432;51.902;10.844;2024-01-30T11:48:11;6.10;;;4.15;;
53545;SDS011;39432;51.902;10.844;2024-01-30T11:50:41;12.25;;;6.25;;
53545;SDS011;39432;51.902;10.844;2024-01-30T11:53:12;7.95;;;5.68;;
53545;SDS011;39432;51.902;10.844;2024-01-30T11:55:45;6.18;;;4.40;;
53545;SDS011;39432;51.902;10.844;2024-01-30T11:58:20;8.02;;;4.57;;
53545;SDS011;39432;51.902;10.844;2024-01-30T12:00:54;7.13;;;4.20;;
53545;SDS011;39432;51.902;10.844;2024-01-30T12:03:24;8.25;;;4.80;;
53545;SDS011;39432;51.902;10.844;2024-01-30T12:05:55;9.32;;;5.20;;
53545;SDS011;39432;51.902;10.844;2024-01-30T12:08:27;7.38;;;4.82;;
53545;SDS011;39432;51.902;10.844;2024-01-30T12:10:59;7.40;;;4.82;;
53545;SDS011;39432;51.902;10.844;2024-01-30T12:13:32;7.50;;;4.47;;
53545;SDS011;39432;51.902;10.844;2024-01-30T12:16:02;9.02;;;5.28;;
53545;SDS011;39432;51.902;10.844;2024-01-30T12:18:33;9.02;;;5.10;;
53545;SDS011;39432;51.902;10.844;2024-01-30T12:21:03;7.88;;;4.85;;
53545;SDS011;39432;51.902;10.844;2024-01-30T12:23:34;7.45;;;3.63;;
53545;SDS011;39432;51.902;10.844;2024-01-30T12:26:07;13.30;;;6.70;;
53545;SDS011;39432;51.902;10.844;2024-01-30T12:28:46;17.55;;;10.00;;
53545;SDS011;39432;51.902;10.844;2024-01-30T12:31:17;16.60;;;5.60;;
53545;SDS011;39432;51.902;10.844;2024-01-30T12:33:48;19.17;;;6.82;;
53545;SDS011;39432;51.902;10.844;2024-01-30T12:36:19;5.35;;;4.30;;
53545;SDS011;39432;51.902;10.844;2024-01-30T12:38:49;8.68;;;4.10;;
53545;SDS011;39432;51.902;10.844;2024-01-30T12:41:22;6.32;;;3.78;;
53545;SDS011;39432;51.902;10.844;2024-01-30T12:43:54;6.10;;;4.03;;
53545;SDS011;39432;51.902;10.844;2024-01-30T12:46:27;6.18;;;3.97;;
53545;SDS011;39432;51.902;10.844;2024-01-30T12:48:58;6.70;;;3.90;;
53545;SDS011;39432;51.902;10.844;2024-01-30T12:51:28;9.10;;;4.65;;
53545;SDS011;39432;51.902;10.844;2024-01-30T12:53:58;9.15;;;4.50;;
53545;SDS011;39432;51.902;10.844;2024-01-30T12:56:30;7.88;;;4.50;;
53545;SDS011;39432;51.902;10.844;2024-01-30T12:59:00;21.90;;;5.32;;
53545;SDS011;39432;51.902;10.844;2024-01-30T13:01:30;10.93;;;5.07;;
53545;SDS011;39432;51.902;10.844;2024-01-30T13:04:00;8.85;;;4.95;;
53545;SDS011;39432;51.902;10.844;2024-01-30T13:06:30;8.05;;;4.88;;
53545;SDS011;39432;51.902;10.844;2024-01-30T13:09:00;8.52;;;4.30;;
53545;SDS011;39432;51.902;10.844;2024-01-30T13:11:32;8.32;;;4.80;;
53545;SDS011;39432;51.902;10.844;2024-01-30T13:14:02;6.60;;;4.30;;
53545;SDS011;39432;51.902;10.844;2024-01-30T13:16:32;7.22;;;4.25;;
53545;SDS011;39432;51.902;10.844;2024-01-30T13:19:03;10.20;;;4.60;;
53545;SDS011;39432;51.902;10.844;2024-01-30T13:21:33;6.78;;;3.50;;
53545;SDS011;39432;51.902;10.844;2024-01-30T13:24:03;6.22;;;4.18;;
53545;SDS011;39432;51.902;10.844;2024-01-30T13:26:36;6.93;;;4.50;;
53545;SDS011;39432;51.902;10.844;2024-01-30T13:29:06;12.25;;;4.10;;
53545;SDS011;39432;51.902;10.844;2024-01-30T13:31:36;9.70;;;4.20;;
53545;SDS011;39432;51.902;10.844;2024-01-30T13:34:06;11.40;;;4.57;;
53545;SDS011;39432;51.902;10.844;2024-01-30T13:36:36;12.32;;;4.38;;
53545;SDS011;39432;51.902;10.844;2024-01-30T13:39:06;13.20;;;3.97;;
53545;SDS011;39432;51.902;10.844;2024-01-30T13:41:39;9.07;;;4.10;;
53545;SDS011;39432;51.902;10.844;2024-01-30T13:44:09;7.85;;;3.97;;
53545;SDS011;39432;51.902;10.844;2024-01-30T13:46:39;12.55;;;4.78;;
53545;SDS011;39432;51.902;10.844;2024-01-30T13:49:09;10.93;;;4.10;;
53545;SDS011;39432;51.902;10.844;2024-01-30T13:51:39;14.40;;;4.85;;
53545;SDS011;39432;51.902;10.844;2024-01-30T13:54:09;22.38;;;5.65;;
53545;SDS011;39432;51.902;10.844;2024-01-30T13:56:41;8.80;;;4.22;;
53545;SDS011;39432;51.902;10.844;2024-01-30T13:59:11;5.35;;;3.83;;
53545;SDS011;39432;51.902;10.844;2024-01-30T14:01:41;6.72;;;4.30;;
53545;SDS011;39432;51.902;10.844;2024-01-30T14:04:11;6.88;;;3.95;;
53545;SDS011;39432;51.902;10.844;2024-01-30T14:06:41;10.05;;;4.20;;
53545;SDS011;39432;51.902;10.844;2024-01-30T14:09:22;9.25;;;4.43;;
53545;SDS011;39432;51.902;10.844;2024-01-30T14:11:55;7.03;;;4.30;;
53545;SDS011;39432;51.902;10.844;2024-01-30T14:14:26;7.25;;;4.60;;
53545;SDS011;39432;51.902;10.844;2024-01-30T14:16:55;8.63;;;4.30;;
53545;SDS011;39432;51.902;10.844;2024-01-30T14:19:26;6.25;;;4.25;;
53545;SDS011;39432;51.902;10.844;2024-01-30T14:21:56;7.65;;;4.55;;
53545;SDS011;39432;51.902;10.844;2024-01-30T14:24:26;9.07;;;4.50;;
53545;SDS011;39432;51.902;10.844;2024-01-30T14:26:58;9.52;;;4.25;;
53545;SDS011;39432;51.902;10.844;2024-01-30T14:29:29;9.52;;;4.47;;
53545;SDS011;39432;51.902;10.844;2024-01-30T14:31:58;7.80;;;4.60;;
53545;SDS011;39432;51.902;10.844;2024-01-30T14:34:28;13.50;;;5.32;;
53545;SDS011;39432;51.902;10.844;2024-01-30T14:36:58;7.28;;;4.40;;
53545;SDS011;39432;51.902;10.844;2024-01-30T14:39:28;11.57;;;5.43;;
53545;SDS011;39432;51.902;10.844;2024-01-30T14:42:02;30.52;;;12.85;;
53545;SDS011;39432;51.902;10.844;2024-01-30T14:44:32;13.48;;;7.35;;
53545;SDS011;39432;51.902;10.844;2024-01-30T14:47:03;18.63;;;8.52;;